createdAt,value
2022-11-29T00:01:20.691Z,8.38
2022-11-29T00:03:47.337Z,9.75
2022-11-29T00:06:16.706Z,9.88
2022-11-29T00:08:43.361Z,9.75
2022-11-29T00:11:39.187Z,9.65
2022-11-29T00:14:07.528Z,9.27
2022-11-29T00:16:34.407Z,9.82
2022-11-29T00:19:01.259Z,9.68
2022-11-29T00:21:27.798Z,9.93
2022-11-29T00:23:54.489Z,10.43
2022-11-29T00:26:20.986Z,10.55
2022-11-29T00:28:47.592Z,10.90
2022-11-29T00:31:18.188Z,11.45
2022-11-29T00:33:44.969Z,9.95
2022-11-29T00:36:12.038Z,10.30
2022-11-29T00:38:39.308Z,9.57
2022-11-29T00:41:06.716Z,11.48
2022-11-29T00:43:33.501Z,10.68
2022-11-29T00:45:59.923Z,10.98
2022-11-29T00:48:26.636Z,10.77
2022-11-29T00:50:53.403Z,11.15
2022-11-29T00:53:20.002Z,11.15
2022-11-29T00:55:50.646Z,11.07
2022-11-29T00:58:17.514Z,11.15
2022-11-29T01:00:44.377Z,11.10
2022-11-29T01:03:11.075Z,10.80
2022-11-29T01:05:37.805Z,11.18
2022-11-29T01:08:04.673Z,10.07
2022-11-29T01:10:31.077Z,10.52
2022-11-29T01:12:57.889Z,11.13
2022-11-29T01:15:24.486Z,11.27
2022-11-29T01:17:50.898Z,11.57
2022-11-29T01:20:17.534Z,11.30
2022-11-29T01:22:44.417Z,11.00
2022-11-29T01:25:12.484Z,12.50
2022-11-29T01:27:39.495Z,11.93
2022-11-29T01:30:07.627Z,11.80
2022-11-29T01:32:35.060Z,12.27
2022-11-29T01:35:01.772Z,13.45
2022-11-29T01:37:29.751Z,13.07
2022-11-29T01:39:56.340Z,13.00
2022-11-29T01:42:23.085Z,12.70
2022-11-29T01:44:49.442Z,13.00
2022-11-29T01:47:18.805Z,14.25
2022-11-29T01:49:48.701Z,13.55
2022-11-29T01:52:20.980Z,14.15
2022-11-29T01:54:50.869Z,13.85
2022-11-29T01:57:18.457Z,13.48
2022-11-29T01:59:49.553Z,14.00
2022-11-29T02:02:22.137Z,14.18
2022-11-29T02:04:49.612Z,13.52
2022-11-29T02:07:16.568Z,15.18
2022-11-29T02:09:42.997Z,13.80
2022-11-29T02:12:28.433Z,13.55
2022-11-29T02:15:18.324Z,13.98
2022-11-29T02:18:03.391Z,13.88
2022-11-29T02:21:14.835Z,14.57
2022-11-29T02:24:28.952Z,13.98
2022-11-29T02:27:11.843Z,13.68
2022-11-29T02:30:05.278Z,15.95
2022-11-29T02:33:05.795Z,14.65
2022-11-29T02:35:53.468Z,15.80
2022-11-29T02:38:43.100Z,15.15
2022-11-29T02:41:36.440Z,15.55
2022-11-29T02:44:17.846Z,15.73
2022-11-29T02:47:09.284Z,16.10
2022-11-29T02:50:00.768Z,16.88
2022-11-29T02:52:53.606Z,16.30
2022-11-29T02:55:47.470Z,17.33
2022-11-29T02:58:31.170Z,15.98
2022-11-29T03:01:25.264Z,17.48
2022-11-29T03:04:27.119Z,16.15
2022-11-29T03:07:05.874Z,18.05
2022-11-29T03:09:36.998Z,16.35
2022-11-29T03:12:40.316Z,17.60
2022-11-29T03:15:24.964Z,18.27
2022-11-29T03:18:28.362Z,18.35
2022-11-29T03:21:17.560Z,18.05
2022-11-29T03:23:53.631Z,17.80
2022-11-29T03:26:26.070Z,17.98
2022-11-29T03:29:23.515Z,18.33
2022-11-29T03:32:09.106Z,18.20
2022-11-29T03:35:03.796Z,19.15
2022-11-29T03:38:02.928Z,17.08
2022-11-29T03:40:39.156Z,19.33
2022-11-29T03:43:38.857Z,20.27
2022-11-29T03:46:12.532Z,19.42
2022-11-29T03:48:51.502Z,19.48
2022-11-29T03:51:29.225Z,17.55
2022-11-29T03:54:11.538Z,19.00
2022-11-29T03:56:40.340Z,18.60
2022-11-29T03:59:25.682Z,19.20
2022-11-29T04:02:16.320Z,19.88
2022-11-29T04:05:19.471Z,20.23
2022-11-29T04:07:55.373Z,21.20
2022-11-29T04:10:59.045Z,20.77
2022-11-29T04:13:41.478Z,22.23
2022-11-29T04:16:41.012Z,20.95
2022-11-29T04:19:46.053Z,22.23
2022-11-29T04:22:43.429Z,22.95
2022-11-29T04:25:39.735Z,22.45
2022-11-29T04:28:38.702Z,23.73
2022-11-29T04:31:21.857Z,24.00
2022-11-29T04:34:06.651Z,22.92
2022-11-29T04:36:51.107Z,24.63
2022-11-29T04:39:45.778Z,24.23
2022-11-29T04:42:18.322Z,23.65
2022-11-29T04:45:06.427Z,24.40
2022-11-29T04:47:42.922Z,24.67
2022-11-29T04:50:30.537Z,23.85
2022-11-29T04:52:59.665Z,21.80
2022-11-29T04:55:41.300Z,23.30
2022-11-29T04:58:28.402Z,24.08
2022-11-29T05:01:13.260Z,24.90
2022-11-29T05:04:02.458Z,23.73
2022-11-29T05:06:34.601Z,21.90
2022-11-29T05:09:21.099Z,23.40
2022-11-29T05:11:58.551Z,22.40
2022-11-29T05:14:58.911Z,22.67
2022-11-29T05:17:36.830Z,22.23
2022-11-29T05:20:18.964Z,21.92
2022-11-29T05:23:04.437Z,22.27
2022-11-29T05:25:55.762Z,24.30
2022-11-29T05:28:37.557Z,23.70
2022-11-29T05:31:19.068Z,21.95
2022-11-29T05:33:56.179Z,25.00
2022-11-29T05:36:55.205Z,23.67
2022-11-29T05:39:39.870Z,22.10
2022-11-29T05:42:44.060Z,21.60
2022-11-29T05:45:25.791Z,22.38
2022-11-29T05:48:09.184Z,25.00
2022-11-29T05:50:45.121Z,21.75
2022-11-29T05:53:33.320Z,21.42
2022-11-29T05:56:12.461Z,21.25
2022-11-29T05:58:58.219Z,20.88
2022-11-29T06:01:29.242Z,21.40
2022-11-29T06:04:02.070Z,22.17
2022-11-29T06:06:43.489Z,22.23
2022-11-29T06:09:24.539Z,21.45
2022-11-29T06:12:06.713Z,19.63
2022-11-29T06:15:13.584Z,19.73
2022-11-29T06:17:55.486Z,21.05
2022-11-29T06:20:40.654Z,19.05
2022-11-29T06:23:25.525Z,20.95
2022-11-29T06:26:04.120Z,20.98
2022-11-29T06:29:03.136Z,21.63
2022-11-29T06:31:34.919Z,19.25
2022-11-29T06:34:11.150Z,21.45
2022-11-29T06:36:43.528Z,19.65
2022-11-29T06:39:11.105Z,22.27
2022-11-29T06:41:37.817Z,21.65
2022-11-29T06:44:04.879Z,20.48
2022-11-29T06:46:45.909Z,21.27
2022-11-29T06:49:32.764Z,22.13
2022-11-29T06:52:27.382Z,20.58
2022-11-29T06:55:24.197Z,21.20
2022-11-29T06:58:07.083Z,20.60
2022-11-29T07:00:45.526Z,22.60
2022-11-29T07:04:03.618Z,22.85
2022-11-29T07:06:31.858Z,20.88
2022-11-29T07:09:10.399Z,22.77
2022-11-29T07:11:37.548Z,21.83
2022-11-29T07:14:04.265Z,22.77
2022-11-29T07:16:36.603Z,23.52
2022-11-29T07:19:29.165Z,23.67
2022-11-29T07:22:24.900Z,22.75
2022-11-29T07:25:19.280Z,5.50
2022-11-29T07:30:28.539Z,25.27
2022-11-29T07:33:32.560Z,26.50
2022-11-29T07:36:09.979Z,24.90
2022-11-29T07:38:57.638Z,25.27
2022-11-29T07:41:44.367Z,26.05
2022-11-29T07:44:34.963Z,25.58
2022-11-29T07:47:02.246Z,27.35
2022-11-29T07:49:28.803Z,25.63
2022-11-29T07:51:56.218Z,27.23
2022-11-29T07:54:23.324Z,26.20
2022-11-29T07:56:49.990Z,26.02
2022-11-29T07:59:16.652Z,26.42
2022-11-29T08:01:43.296Z,27.25
2022-11-29T08:04:09.845Z,25.70
2022-11-29T08:06:37.129Z,26.40
2022-11-29T08:09:04.521Z,24.77
2022-11-29T08:11:31.130Z,26.15
2022-11-29T08:14:02.438Z,25.45
2022-11-29T08:16:29.063Z,24.65
2022-11-29T08:18:55.536Z,25.42
2022-11-29T08:21:22.358Z,24.42
2022-11-29T08:23:49.923Z,25.10
2022-11-29T08:26:18.256Z,23.98
2022-11-29T08:28:44.953Z,23.95
2022-11-29T08:31:13.701Z,24.42
2022-11-29T08:33:43.078Z,24.45
2022-11-29T08:36:13.106Z,23.55
2022-11-29T08:38:39.947Z,22.40
2022-11-29T08:41:10.784Z,23.65
2022-11-29T08:43:37.538Z,22.67
2022-11-29T08:46:04.410Z,22.83
2022-11-29T08:48:31.094Z,23.75
2022-11-29T08:50:57.997Z,25.42
2022-11-29T08:53:43.300Z,23.98
2022-11-29T08:56:53.530Z,22.55
2022-11-29T08:58:59.159Z,24.63
2022-11-29T09:01:26.011Z,24.75
2022-11-29T09:04:05.104Z,23.77
2022-11-29T09:06:39.076Z,24.17
2022-11-29T09:09:06.403Z,23.58
2022-11-29T09:11:34.698Z,26.13
2022-11-29T09:14:05.170Z,24.55
2022-11-29T09:16:35.069Z,25.73
2022-11-29T09:19:02.804Z,25.15
2022-11-29T09:21:31.490Z,24.48
2022-11-29T09:26:30.651Z,22.70
2022-11-29T09:29:01.382Z,24.85
2022-11-29T09:31:29.798Z,25.23
2022-11-29T09:33:56.673Z,25.83
2022-11-29T09:36:28.534Z,27.70
2022-11-29T09:38:57.018Z,25.90
2022-11-29T09:41:53.901Z,25.20
2022-11-29T09:44:39.357Z,26.50
2022-11-29T09:47:26.829Z,25.02
2022-11-29T09:49:56.280Z,25.20
2022-11-29T09:52:28.797Z,26.45
2022-11-29T09:55:27.563Z,27.42
2022-11-29T09:57:56.836Z,25.92
2022-11-29T10:00:23.374Z,26.67
2022-11-29T10:03:03.048Z,26.85
2022-11-29T10:05:53.367Z,25.35
2022-11-29T10:08:27.247Z,27.80
2022-11-29T10:11:01.529Z,25.65
2022-11-29T10:13:34.049Z,26.55
2022-11-29T10:16:13.086Z,25.92
2022-11-29T10:19:15.459Z,25.80
2022-11-29T10:21:48.784Z,26.10
2022-11-29T10:24:20.481Z,21.88
2022-11-29T10:26:46.919Z,23.88
2022-11-29T10:29:15.500Z,22.02
2022-11-29T10:31:47.025Z,21.60
2022-11-29T10:34:23.130Z,24.38
2022-11-29T10:37:01.541Z,22.40
2022-11-29T10:39:39.673Z,22.10
2022-11-29T10:42:35.046Z,23.02
2022-11-29T10:45:02.560Z,21.67
2022-11-29T10:47:29.343Z,21.58
2022-11-29T10:49:56.876Z,21.92
2022-11-29T10:52:24.013Z,21.52
2022-11-29T10:54:56.927Z,20.10
2022-11-29T10:57:24.187Z,20.83
2022-11-29T11:00:11.521Z,21.85
2022-11-29T11:02:38.351Z,21.83
2022-11-29T11:05:18.566Z,20.88
2022-11-29T11:07:47.318Z,20.77
2022-11-29T11:10:29.459Z,19.92
2022-11-29T11:13:06.889Z,20.30
2022-11-29T11:15:33.940Z,21.05
2022-11-29T11:18:06.269Z,22.25
2022-11-29T11:20:36.244Z,19.92
2022-11-29T11:23:20.041Z,18.92
2022-11-29T11:25:50.106Z,21.38
2022-11-29T11:28:21.190Z,19.25
2022-11-29T11:31:08.166Z,21.05
2022-11-29T11:33:39.523Z,19.85
2022-11-29T11:36:09.460Z,19.80
2022-11-29T11:38:40.369Z,20.60
2022-11-29T11:41:45.688Z,20.88
2022-11-29T11:44:58.615Z,21.45
2022-11-29T11:47:31.965Z,19.65
2022-11-29T11:50:04.470Z,20.73
2022-11-29T11:52:41.176Z,21.00
2022-11-29T11:55:26.403Z,21.95
2022-11-29T11:58:10.291Z,20.10
2022-11-29T12:01:02.993Z,20.85
2022-11-29T12:03:51.391Z,21.27
2022-11-29T12:06:43.921Z,21.55
2022-11-29T12:09:25.256Z,21.02
2022-11-29T12:12:29.367Z,20.25
2022-11-29T12:15:01.378Z,21.10
2022-11-29T12:17:49.156Z,20.70
2022-11-29T12:20:39.721Z,21.00
2022-11-29T12:23:28.383Z,19.02
2022-11-29T12:26:00.757Z,18.20
2022-11-29T12:28:30.439Z,18.58
2022-11-29T12:31:15.746Z,18.35
2022-11-29T12:34:04.226Z,19.70
2022-11-29T12:36:52.644Z,19.92
2022-11-29T12:39:42.854Z,21.48
2022-11-29T12:42:26.438Z,20.85
2022-11-29T12:45:23.286Z,19.30
2022-11-29T12:48:22.063Z,22.20
2022-11-29T12:51:14.848Z,20.95
2022-11-29T12:53:55.669Z,19.25
2022-11-29T12:56:32.262Z,23.77
2022-11-29T12:59:12.622Z,22.58
2022-11-29T13:01:58.138Z,24.15
2022-11-29T13:04:55.023Z,24.73
2022-11-29T13:07:51.193Z,25.60
2022-11-29T13:10:42.418Z,25.63
2022-11-29T13:13:29.115Z,24.95
2022-11-29T13:16:04.762Z,24.45
2022-11-29T13:18:56.270Z,21.45
2022-11-29T13:21:31.881Z,21.73
2022-11-29T13:24:10.445Z,21.92
2022-11-29T13:26:39.979Z,20.85
2022-11-29T13:29:12.404Z,21.45
2022-11-29T13:31:39.743Z,20.67
2022-11-29T13:34:21.178Z,22.08
2022-11-29T13:36:59.606Z,22.33
2022-11-29T13:39:36.214Z,22.70
2022-11-29T13:42:34.210Z,21.83
2022-11-29T13:45:09.675Z,20.83
2022-11-29T13:47:56.377Z,22.52
2022-11-29T13:50:39.304Z,20.77
2022-11-29T13:53:20.288Z,21.02
2022-11-29T13:55:50.405Z,21.60
2022-11-29T13:58:33.506Z,21.40
2022-11-29T14:01:09.565Z,21.40
2022-11-29T14:03:59.652Z,21.48
2022-11-29T14:06:46.939Z,20.23
2022-11-29T14:09:33.878Z,22.30
2022-11-29T14:12:16.524Z,21.25
2022-11-29T14:14:54.553Z,23.10
2022-11-29T14:17:56.881Z,20.73
2022-11-29T14:20:23.342Z,19.60
2022-11-29T14:23:06.731Z,21.05
2022-11-29T14:25:53.686Z,17.98
2022-11-29T14:28:23.210Z,21.10
2022-11-29T14:30:57.320Z,19.98
2022-11-29T14:33:39.039Z,20.38
2022-11-29T14:36:14.926Z,18.63
2022-11-29T14:38:44.464Z,19.85
2022-11-29T14:41:47.671Z,19.88
2022-11-29T14:44:28.126Z,19.73
2022-11-29T14:47:32.847Z,18.70
2022-11-29T14:50:01.523Z,18.13
2022-11-29T14:55:14.722Z,18.23
2022-11-29T14:57:47.220Z,16.45
2022-11-29T15:00:19.265Z,16.70
2022-11-29T15:02:55.497Z,16.13
2022-11-29T15:05:33.514Z,17.50
2022-11-29T15:08:18.851Z,16.92
2022-11-29T15:10:54.070Z,16.75
2022-11-29T15:13:28.270Z,17.08
2022-11-29T15:16:12.993Z,17.38
2022-11-29T15:19:07.831Z,15.98
2022-11-29T15:21:56.077Z,16.02
2022-11-29T15:24:28.128Z,17.15
2022-11-29T15:27:00.565Z,16.13
2022-11-29T15:29:29.416Z,15.45
2022-11-29T15:31:59.113Z,15.20
2022-11-29T15:34:43.229Z,15.90
2022-11-29T15:37:22.395Z,15.13
2022-11-29T15:40:02.441Z,15.52
2022-11-29T15:42:42.468Z,16.58
2022-11-29T15:45:34.916Z,15.23
2022-11-29T15:48:23.131Z,18.92
2022-11-29T15:50:56.136Z,14.50
2022-11-29T15:54:13.794Z,16.02
2022-11-29T15:57:03.458Z,14.02
2022-11-29T15:59:51.244Z,14.45
2022-11-29T16:02:26.078Z,14.80
2022-11-29T16:04:56.680Z,13.35
2022-11-29T16:07:25.774Z,14.10
2022-11-29T16:09:57.935Z,13.85
2022-11-29T16:12:24.532Z,15.07
2022-11-29T16:14:58.406Z,14.02
2022-11-29T16:17:29.213Z,12.50
2022-11-29T16:20:25.990Z,13.05
2022-11-29T16:23:07.949Z,13.23
2022-11-29T16:25:48.070Z,13.13
2022-11-29T16:28:14.909Z,13.00
2022-11-29T16:30:42.523Z,12.18
2022-11-29T16:33:19.040Z,13.50
2022-11-29T16:35:45.753Z,12.55
2022-11-29T16:38:23.021Z,13.10
2022-11-29T16:41:01.901Z,12.60
2022-11-29T16:43:43.774Z,12.43
2022-11-29T16:46:27.166Z,12.85
2022-11-29T16:48:55.669Z,12.13
2022-11-29T16:51:23.984Z,12.48
2022-11-29T16:53:52.151Z,11.55
2022-11-29T16:56:22.207Z,11.98
2022-11-29T16:59:20.956Z,13.55
2022-11-29T17:01:48.045Z,15.70
2022-11-29T17:04:23.988Z,13.70
2022-11-29T17:06:54.135Z,15.15
2022-11-29T17:09:28.401Z,14.25
2022-11-29T17:11:55.961Z,13.93
2022-11-29T17:14:23.208Z,14.38
2022-11-29T17:16:50.363Z,13.57
2022-11-29T17:19:22.865Z,14.77
2022-11-29T17:21:52.314Z,14.77
2022-11-29T17:24:20.624Z,16.13
2022-11-29T17:26:47.237Z,10.23
2022-11-29T17:29:15.152Z,12.60
2022-11-29T17:31:43.898Z,11.50
2022-11-29T17:34:10.956Z,15.35
2022-11-29T17:36:38.106Z,14.85
2022-11-29T17:39:05.601Z,13.70
2022-11-29T17:41:33.000Z,13.57
2022-11-29T17:44:00.319Z,13.77
2022-11-29T17:46:30.922Z,13.48
2022-11-29T17:49:02.699Z,11.82
2022-11-29T17:51:51.210Z,13.52
2022-11-29T17:54:16.467Z,13.50
2022-11-29T17:56:43.068Z,12.38
2022-11-29T17:59:09.447Z,12.60
2022-11-29T18:01:36.139Z,12.93
2022-11-29T18:04:05.601Z,13.73
2022-11-29T18:06:38.840Z,14.07
2022-11-29T18:09:08.054Z,15.45
2022-11-29T18:11:46.348Z,15.02
2022-11-29T18:14:17.537Z,14.70
2022-11-29T18:16:45.761Z,15.40
2022-11-29T18:19:14.996Z,15.70
2022-11-29T18:21:41.763Z,15.73
2022-11-29T18:24:09.099Z,16.80
2022-11-29T18:26:36.893Z,17.15
2022-11-29T18:29:05.226Z,16.52
2022-11-29T18:31:34.796Z,17.33
2022-11-29T18:34:03.476Z,16.77
2022-11-29T18:36:33.027Z,17.25
2022-11-29T18:39:06.340Z,16.80
2022-11-29T18:41:32.846Z,16.60
2022-11-29T18:44:02.177Z,16.92
2022-11-29T18:46:32.373Z,16.88
2022-11-29T18:49:02.937Z,17.67
2022-11-29T18:51:30.949Z,16.77
2022-11-29T18:53:58.487Z,17.90
2022-11-29T18:56:28.509Z,17.10
2022-11-29T18:59:00.494Z,16.90
2022-11-29T19:01:28.991Z,16.70
2022-11-29T19:03:57.946Z,16.67
2022-11-29T19:06:39.401Z,15.70
2022-11-29T19:09:11.501Z,16.02
2022-11-29T19:11:38.895Z,18.70
2022-11-29T19:14:11.685Z,17.88
2022-11-29T19:16:40.989Z,19.35
2022-11-29T19:19:07.576Z,17.38
2022-11-29T19:21:34.497Z,17.50
2022-11-29T19:24:03.477Z,17.20
2022-11-29T19:26:31.737Z,15.63
2022-11-29T19:29:00.231Z,16.05
2022-11-29T19:31:27.770Z,15.13
2022-11-29T19:33:55.556Z,13.82
2022-11-29T19:36:27.809Z,13.35
2022-11-29T19:38:55.148Z,12.23
2022-11-29T19:41:32.731Z,13.10
2022-11-29T19:44:07.709Z,12.05
2022-11-29T19:46:36.910Z,12.63
2022-11-29T19:49:05.800Z,11.38
2022-11-29T19:51:33.304Z,12.13
2022-11-29T19:54:02.871Z,11.98
2022-11-29T19:56:30.759Z,12.88
2022-11-29T19:58:59.540Z,13.13
2022-11-29T20:01:35.955Z,13.30
2022-11-29T20:04:06.280Z,12.98
2022-11-29T20:06:32.874Z,13.55
2022-11-29T20:08:59.401Z,13.00
2022-11-29T20:11:26.531Z,13.90
2022-11-29T20:13:56.550Z,14.95
2022-11-29T20:16:23.571Z,13.57
2022-11-29T20:18:51.670Z,15.13
2022-11-29T20:21:21.761Z,14.45
2022-11-29T20:23:48.506Z,13.73
2022-11-29T20:26:18.114Z,16.00
2022-11-29T20:28:46.275Z,14.90
2022-11-29T20:31:16.975Z,14.75
2022-11-29T20:33:45.734Z,15.30
2022-11-29T20:36:47.876Z,15.73
2022-11-29T20:39:29.255Z,14.80
2022-11-29T20:42:22.612Z,14.32
2022-11-29T20:44:54.224Z,13.70
2022-11-29T20:47:23.749Z,14.52
2022-11-29T20:49:51.418Z,14.20
2022-11-29T20:52:57.388Z,14.35
2022-11-29T20:55:24.000Z,12.77
2022-11-29T20:57:50.622Z,13.43
2022-11-29T21:00:18.086Z,12.95
2022-11-29T21:02:44.767Z,13.85
2022-11-29T21:05:11.418Z,13.68
2022-11-29T21:07:37.943Z,13.65
2022-11-29T21:10:05.201Z,13.80
2022-11-29T21:12:32.041Z,14.20
2022-11-29T21:14:58.806Z,15.63
2022-11-29T21:17:31.731Z,14.35
2022-11-29T21:20:00.096Z,16.33
2022-11-29T21:22:30.473Z,14.52
2022-11-29T21:25:12.155Z,14.77
2022-11-29T21:27:38.892Z,16.15
2022-11-29T21:30:06.533Z,16.17
2022-11-29T21:32:33.774Z,15.93
2022-11-29T21:35:00.176Z,15.10
2022-11-29T21:37:29.744Z,15.48
2022-11-29T21:39:57.504Z,14.85
2022-11-29T21:42:24.139Z,15.73
2022-11-29T21:44:50.888Z,16.27
2022-11-29T21:47:17.535Z,17.48
2022-11-29T21:49:43.951Z,17.08
2022-11-29T21:52:10.653Z,16.80
2022-11-29T21:54:37.187Z,15.95
2022-11-29T21:57:04.297Z,16.27
2022-11-29T21:59:30.800Z,16.35
2022-11-29T22:01:57.451Z,17.15
2022-11-29T22:04:24.998Z,16.63
2022-11-29T22:06:51.372Z,17.75
2022-11-29T22:09:17.781Z,16.63
2022-11-29T22:11:44.553Z,16.48
2022-11-29T22:14:14.164Z,17.30
2022-11-29T22:16:42.253Z,17.02
2022-11-29T22:19:12.312Z,17.27
2022-11-29T22:21:40.286Z,17.10
2022-11-29T22:24:08.644Z,17.05
2022-11-29T22:26:35.175Z,17.92
2022-11-29T22:29:01.798Z,16.92
2022-11-29T22:31:28.580Z,16.98
2022-11-29T22:33:55.683Z,16.55
2022-11-29T22:36:22.957Z,18.45
2022-11-29T22:38:49.401Z,18.27
2022-11-29T22:41:16.436Z,17.17
2022-11-29T22:43:43.169Z,17.85
2022-11-29T22:46:18.990Z,17.05
2022-11-29T22:48:48.847Z,17.10
2022-11-29T22:51:18.105Z,19.00
2022-11-29T22:54:11.895Z,18.23
2022-11-29T22:56:40.310Z,17.33
2022-11-29T22:59:07.282Z,18.63
2022-11-29T23:01:36.850Z,18.10
2022-11-29T23:04:07.105Z,16.80
2022-11-29T23:06:42.126Z,17.75
2022-11-29T23:09:19.655Z,18.70
2022-11-29T23:11:50.747Z,18.25
2022-11-29T23:14:17.936Z,18.33
2022-11-29T23:16:44.662Z,17.65
2022-11-29T23:19:11.550Z,17.90
2022-11-29T23:21:41.016Z,18.60
2022-11-29T23:24:07.779Z,18.50
2022-11-29T23:26:40.066Z,19.05
2022-11-29T23:29:08.946Z,18.50
2022-11-29T23:31:35.488Z,19.15
2022-11-29T23:34:02.998Z,17.65
2022-11-29T23:36:29.464Z,19.38
2022-11-29T23:38:56.000Z,18.63
2022-11-29T23:41:22.820Z,17.08
2022-11-29T23:43:49.334Z,15.95
2022-11-29T23:46:21.709Z,18.48
2022-11-29T23:48:48.675Z,17.20
2022-11-29T23:51:15.657Z,18.02
2022-11-29T23:53:43.880Z,17.17
2022-11-29T23:56:14.413Z,17.67
2022-11-29T23:58:41.656Z,17.85
